Station Historical Data
Daily Summary for February 10, 2012 Units:  Both    English   Metric
« Previous Day
Next Day »
Daily Weekly Monthly Yearly Custom
  High: Low: Average:
Temperature: 40.6 °F /  4.8 °C 30.0 °F /  -1.1 °C 34.5 °F /  1.4 °C
Dew Point: 36.1 °F /  2.3 °C 25.7 °F /  -3.5 °C 30.3 °F /  -0.9 °C
Humidity: 96% 69% 85%
Wind Speed: 8.0mph /  12.9km/h - 2mph /  3.2km/h
Wind Gust: 9.0mph /  14.5km/h - -
Wind- - South
Pressure: 30.23 in /  1023.6 hPa 30.05 in /  1017.5 hPa -
Precipitation: 0.05 in /  1.27 mm    
Historical Graphs
 
 
Tabular Data for February 10, 2012
Time Temperature Dew Point Pressure Wind Wind Speed Wind Gust Humidity Rainfall Rate (Hourly) Conditions
00:00 31.5 °F /  -0.3 °C 26.6 °F /  -3 °C 30.23in /  1023.6hPa NNE 2.0mph /  3.2km/h 4.0mph /  6.4km/h 82% 0.00in /  0mm
00:01 31.4 °F /  -0.3 °C 26.5 °F /  -3.1 °C 30.23in /  1023.6hPa NNW 3.0mph /  4.8km/h 4.0mph /  6.4km/h 82% 0.00in /  0mm
00:06 31.3 °F /  -0.4 °C 26.5 °F /  -3.1 °C 30.23in /  1023.6hPa NNW 2.0mph /  3.2km/h 4.0mph /  6.4km/h 82% 0.00in /  0mm
00:11 31.1 °F /  -0.5 °C 26.5 °F /  -3.1 °C 30.23in /  1023.6hPa NNE 3.0mph /  4.8km/h 4.0mph /  6.4km/h 83% 0.00in /  0mm
00:16 31.0 °F /  -0.6 °C 26.5 °F /  -3.1 °C 30.23in /  1023.6hPa North 3.0mph /  4.8km/h 5.0mph /  8km/h 83% 0.00in /  0mm
00:21 31.0 °F /  -0.6 °C 26.5 °F /  -3.1 °C 30.23in /  1023.6hPa North 4.0mph /  6.4km/h 4.0mph /  6.4km/h 83% 0.00in /  0mm
00:26 30.9 °F /  -0.6 °C 26.4 °F /  -3.1 °C 30.23in /  1023.6hPa North 4.0mph /  6.4km/h 6.0mph /  9.7km/h 83% 0.00in /  0mm
00:31 30.8 °F /  -0.7 °C 26.3 °F /  -3.2 °C 30.23in /  1023.6hPa North 4.0mph /  6.4km/h 5.0mph /  8km/h 83% 0.00in /  0mm
00:36 30.9 °F /  -0.6 °C 26.4 °F /  -3.1 °C 30.23in /  1023.6hPa North 3.0mph /  4.8km/h 7.0mph /  11.3km/h 83% 0.00in /  0mm
00:41 31.0 °F /  -0.6 °C 26.5 °F /  -3.1 °C 30.23in /  1023.6hPa North 4.0mph /  6.4km/h 5.0mph /  8km/h 83% 0.00in /  0mm
00:46 30.9 °F /  -0.6 °C 26.4 °F /  -3.1 °C 30.23in /  1023.6hPa North 4.0mph /  6.4km/h 5.0mph /  8km/h 83% 0.00in /  0mm
00:51 30.9 °F /  -0.6 °C 26.4 °F /  -3.1 °C 30.22in /  1023.2hPa North 4.0mph /  6.4km/h 5.0mph /  8km/h 83% 0.00in /  0mm
00:56 31.0 °F /  -0.6 °C 26.5 °F /  -3.1 °C 30.23in /  1023.6hPa North 4.0mph /  6.4km/h 4.0mph /  6.4km/h 83% 0.00in /  0mm
01:01 30.9 °F /  -0.6 °C 26.4 °F /  -3.1 °C 30.22in /  1023.2hPa North 2.0mph /  3.2km/h 4.0mph /  6.4km/h 83% 0.00in /  0mm
01:06 30.9 °F /  -0.6 °C 26.4 °F /  -3.1 °C 30.22in /  1023.2hPa North 4.0mph /  6.4km/h 4.0mph /  6.4km/h 83% 0.00in /  0mm
01:11 30.9 °F /  -0.6 °C 26.4 °F /  -3.1 °C 30.22in /  1023.2hPa North 3.0mph /  4.8km/h 4.0mph /  6.4km/h 83% 0.00in /  0mm
01:16 30.8 °F /  -0.7 °C 26.3 °F /  -3.2 °C 30.22in /  1023.2hPa NNW 5.0mph /  8km/h 5.0mph /  8km/h 83% 0.00in /  0mm
01:21 30.6 °F /  -0.8 °C 26.1 °F /  -3.3 °C 30.22in /  1023.2hPa North 4.0mph /  6.4km/h 5.0mph /  8km/h 83% 0.00in /  0mm
01:26 30.5 °F /  -0.8 °C 26.0 °F /  -3.3 °C 30.23in /  1023.6hPa North 4.0mph /  6.4km/h 6.0mph /  9.7km/h 83% 0.00in /  0mm
01:31 30.5 °F /  -0.8 °C 26.0 °F /  -3.3 °C 30.22in /  1023.2hPa NNE 3.0mph /  4.8km/h 6.0mph /  9.7km/h 83% 0.00in /  0mm
01:36 30.5 °F /  -0.8 °C 26.0 °F /  -3.3 °C 30.22in /  1023.2hPa NE 3.0mph /  4.8km/h 8.0mph /  12.9km/h 83% 0.00in /  0mm
01:41 30.6 °F /  -0.8 °C 26.1 °F /  -3.3 °C 30.22in /  1023.2hPa North 3.0mph /  4.8km/h 5.0mph /  8km/h 83% 0.00in /  0mm
01:46 30.5 °F /  -0.8 °C 26.0 °F /  -3.3 °C 30.22in /  1023.2hPa NNE 2.0mph /  3.2km/h 5.0mph /  8km/h 83% 0.00in /  0mm
01:47 30.5 °F /  -0.8 °C 26.0 °F /  -3.3 °C 30.22in /  1023.2hPa North 3.0mph /  4.8km/h 5.0mph /  8km/h 83% 0.00in /  0mm
01:52 30.5 °F /  -0.8 °C 26.0 °F /  -3.3 °C 30.21in /  1022.9hPa North 3.0mph /  4.8km/h 5.0mph /  8km/h 83% 0.00in /  0mm
01:57 30.4 °F /  -0.9 °C 25.9 °F /  -3.4 °C 30.21in /  1022.9hPa NNE 3.0mph /  4.8km/h 6.0mph /  9.7km/h 83% 0.00in /  0mm
02:02 30.5 °F /  -0.8 °C 26.0 °F /  -3.3 °C 30.22in /  1023.2hPa NNE 3.0mph /  4.8km/h 5.0mph /  8km/h 83% 0.00in /  0mm
02:07 30.4 °F /  -0.9 °C 25.9 °F /  -3.4 °C 30.22in /  1023.2hPa NNW 1.0mph /  1.6km/h 4.0mph /  6.4km/h 83% 0.00in /  0mm
02:12 30.3 °F /  -0.9 °C 25.8 °F /  -3.4 °C 30.22in /  1023.2hPa NNE 1.0mph /  1.6km/h 2.0mph /  3.2km/h 83% 0.00in /  0mm
02:17 30.1 °F /  -1.1 °C 25.9 °F /  -3.4 °C 30.22in /  1023.2hPa North 1.0mph /  1.6km/h 3.0mph /  4.8km/h 84% 0.00in /  0mm
02:22 30.1 °F /  -1.1 °C 25.9 °F /  -3.4 °C 30.22in /  1023.2hPa NNW 2.0mph /  3.2km/h 3.0mph /  4.8km/h 84% 0.00in /  0mm
02:27 30.2 °F /  -1 °C 25.7 °F /  -3.5 °C 30.21in /  1022.9hPa NNE 2.0mph /  3.2km/h 3.0mph /  4.8km/h 83% 0.00in /  0mm
02:32 30.2 °F /  -1 °C 25.7 °F /  -3.5 °C 30.21in /  1022.9hPa NNE 2.0mph /  3.2km/h 3.0mph /  4.8km/h 83% 0.00in /  0mm
02:37 30.3 °F /  -0.9 °C 25.8 °F /  -3.4 °C 30.21in /  1022.9hPa North 2.0mph /  3.2km/h 4.0mph /  6.4km/h 83% 0.00in /  0mm
02:42 30.3 °F /  -0.9 °C 25.8 °F /  -3.4 °C 30.20in /  1022.6hPa North 3.0mph /  4.8km/h 4.0mph /  6.4km/h 83% 0.00in /  0mm
02:47 30.2 °F /  -1 °C 25.7 °F /  -3.5 °C 30.20in /  1022.6hPa NE 3.0mph /  4.8km/h 3.0mph /  4.8km/h 83% 0.00in /  0mm
02:52 30.2 °F /  -1 °C 25.7 °F /  -3.5 °C 30.19in /  1022.2hPa NE 4.0mph /  6.4km/h 4.0mph /  6.4km/h 83% 0.00in /  0mm
02:57 30.3 °F /  -0.9 °C 25.8 °F /  -3.4 °C 30.19in /  1022.2hPa NE 4.0mph /  6.4km/h 5.0mph /  8km/h 83% 0.00in /  0mm
03:02 30.3 °F /  -0.9 °C 25.8 °F /  -3.4 °C 30.19in /  1022.2hPa NNE 2.0mph /  3.2km/h 4.0mph /  6.4km/h 83% 0.00in /  0mm
03:07 30.2 °F /  -1 °C 25.7 °F /  -3.5 °C 30.19in /  1022.2hPa NE 2.0mph /  3.2km/h 3.0mph /  4.8km/h 83% 0.00in /  0mm
03:12 30.2 °F /  -1 °C 25.7 °F /  -3.5 °C 30.19in /  1022.2hPa NNE 3.0mph /  4.8km/h 3.0mph /  4.8km/h 83% 0.00in /  0mm
03:17 30.2 °F /  -1 °C 25.7 °F /  -3.5 °C 30.18in /  1021.9hPa NNE 4.0mph /  6.4km/h 4.0mph /  6.4km/h 83% 0.00in /  0mm
03:22 30.2 °F /  -1 °C 25.7 °F /  -3.5 °C 30.19in /  1022.2hPa NE 2.0mph /  3.2km/h 3.0mph /  4.8km/h 83% 0.00in /  0mm
03:27 30.2 °F /  -1 °C 25.7 °F /  -3.5 °C 30.19in /  1022.2hPa NNE 3.0mph /  4.8km/h 4.0mph /  6.4km/h 83% 0.00in /  0mm
03:32 30.2 °F /  -1 °C 25.7 °F /  -3.5 °C 30.19in /  1022.2hPa NE 2.0mph /  3.2km/h 3.0mph /  4.8km/h 83% 0.00in /  0mm
03:37 30.3 °F /  -0.9 °C 26.1 °F /  -3.3 °C 30.19in /  1022.2hPa NE 2.0mph /  3.2km/h 4.0mph /  6.4km/h 84% 0.00in /  0mm
03:42 30.3 °F /  -0.9 °C 25.8 °F /  -3.4 °C 30.19in /  1022.2hPa NE 3.0mph /  4.8km/h 3.0mph /  4.8km/h 83% 0.00in /  0mm
03:48 30.4 °F /  -0.9 °C 25.9 °F /  -3.4 °C 30.18in /  1021.9hPa NE 2.0mph /  3.2km/h 4.0mph /  6.4km/h 83% 0.00in /  0mm
03:53 30.4 °F /  -0.9 °C 26.1 °F /  -3.3 °C 30.18in /  1021.9hPa NE 2.0mph /  3.2km/h 3.0mph /  4.8km/h 84% 0.00in /  0mm
03:58 30.5 °F /  -0.8 °C 26.0 °F /  -3.3 °C 30.18in /  1021.9hPa East 1.0mph /  1.6km/h 3.0mph /  4.8km/h 83% 0.00in /  0mm
04:03 30.6 °F /  -0.8 °C 26.1 °F /  -3.3 °C 30.18in /  1021.9hPa Calm   3.0mph /  4.8km/h 83% 0.00in /  0mm
04:08 30.7 °F /  -0.7 °C 26.2 °F /  -3.2 °C 30.18in /  1021.9hPa ENE 1.0mph /  1.6km/h 3.0mph /  4.8km/h 83% 0.00in /  0mm
04:13 30.7 °F /  -0.7 °C 26.2 °F /  -3.2 °C 30.18in /  1021.9hPa NE 3.0mph /  4.8km/h 3.0mph /  4.8km/h 83% 0.00in /  0mm
04:18 30.7 °F /  -0.7 °C 26.2 °F /  -3.2 °C 30.18in /  1021.9hPa NNE 1.0mph /  1.6km/h 3.0mph /  4.8km/h 83% 0.00in /  0mm
04:23 30.6 °F /  -0.8 °C 26.1 °F /  -3.3 °C 30.18in /  1021.9hPa NNE 2.0mph /  3.2km/h 3.0mph /  4.8km/h 83% 0.00in /  0mm
04:28 30.6 °F /  -0.8 °C 26.1 °F /  -3.3 °C 30.18in /  1021.9hPa Calm   3.0mph /  4.8km/h 83% 0.00in /  0mm
04:33 30.6 °F /  -0.8 °C 26.1 °F /  -3.3 °C 30.18in /  1021.9hPa Calm   3.0mph /  4.8km/h 83% 0.00in /  0mm
04:38 30.6 °F /  -0.8 °C 26.1 °F /  -3.3 °C 30.17in /  1021.6hPa NNE 3.0mph /  4.8km/h 3.0mph /  4.8km/h 83% 0.00in /  0mm
04:43 30.6 °F /  -0.8 °C 26.1 °F /  -3.3 °C 30.17in /  1021.6hPa ENE 4.0mph /  6.4km/h 4.0mph /  6.4km/h 83% 0.00in /  0mm
04:48 30.6 °F /  -0.8 °C 26.1 °F /  -3.3 °C 30.17in /  1021.6hPa NE 2.0mph /  3.2km/h 3.0mph /  4.8km/h 83% 0.00in /  0mm
04:53 30.5 °F /  -0.8 °C 26.0 °F /  -3.3 °C 30.17in /  1021.6hPa NE 2.0mph /  3.2km/h 4.0mph /  6.4km/h 83% 0.00in /  0mm
04:58 30.5 °F /  -0.8 °C 26.0 °F /  -3.3 °C 30.17in /  1021.6hPa Calm   3.0mph /  4.8km/h 83% 0.00in /  0mm
05:03 30.4 °F /  -0.9 °C 25.9 °F /  -3.4 °C 30.17in /  1021.6hPa Calm   2.0mph /  3.2km/h 83% 0.00in /  0mm
05:08 30.4 °F /  -0.9 °C 25.9 °F /  -3.4 °C 30.17in /  1021.6hPa ENE 3.0mph /  4.8km/h 3.0mph /  4.8km/h 83% 0.00in /  0mm
05:13 30.5 °F /  -0.8 °C 26.0 °F /  -3.3 °C 30.17in /  1021.6hPa NE 2.0mph /  3.2km/h 2.0mph /  3.2km/h 83% 0.00in /  0mm
05:18 30.4 °F /  -0.9 °C 26.1 °F /  -3.3 °C 30.17in /  1021.6hPa Calm   4.0mph /  6.4km/h 84% 0.00in /  0mm
05:23 30.4 °F /  -0.9 °C 26.1 °F /  -3.3 °C 30.17in /  1021.6hPa Calm   1.0mph /  1.6km/h 84% 0.00in /  0mm
05:28 30.3 °F /  -0.9 °C 26.1 °F /  -3.3 °C 30.18in /  1021.9hPa Calm   1.0mph /  1.6km/h 84% 0.00in /  0mm
05:33 30.3 °F /  -0.9 °C 26.1 °F /  -3.3 °C 30.17in /  1021.6hPa Calm   1.0mph /  1.6km/h 84% 0.00in /  0mm
05:38 30.2 °F /  -1 °C 26.0 °F /  -3.3 °C 30.17in /  1021.6hPa Calm     84% 0.00in /  0mm
05:43 30.1 °F /  -1.1 °C 25.9 °F /  -3.4 °C 30.17in /  1021.6hPa Calm     84% 0.00in /  0mm
05:48 30.1 °F /  -1.1 °C 26.1 °F /  -3.3 °C 30.17in /  1021.6hPa Calm     85% 0.00in /  0mm
05:53 30.0 °F /  -1.1 °C 26.0 °F /  -3.3 °C 30.17in /  1021.6hPa Calm     85% 0.00in /  0mm
05:58 30.0 °F /  -1.1 °C 26.3 °F /  -3.2 °C 30.17in /  1021.6hPa Calm   1.0mph /  1.6km/h 86% 0.00in /  0mm
06:03 30.0 °F /  -1.1 °C 26.3 °F /  -3.2 °C 30.17in /  1021.6hPa ENE 1.0mph /  1.6km/h 1.0mph /  1.6km/h 86% 0.00in /  0mm
06:08 30.0 °F /  -1.1 °C 26.3 °F /  -3.2 °C 30.16in /  1021.2hPa NE 1.0mph /  1.6km/h 1.0mph /  1.6km/h 86% 0.00in /  0mm
06:13 30.1 °F /  -1.1 °C 26.4 °F /  -3.1 °C 30.16in /  1021.2hPa Calm   2.0mph /  3.2km/h 86% 0.00in /  0mm
06:18 30.2 °F /  -1 °C 26.5 °F /  -3.1 °C 30.16in /  1021.2hPa NNE 2.0mph /  3.2km/h 3.0mph /  4.8km/h 86% 0.00in /  0mm
06:23 30.3 °F /  -0.9 °C 26.3 °F /  -3.2 °C 30.15in /  1020.9hPa NNE 3.0mph /  4.8km/h 3.0mph /  4.8km/h 85% 0.00in /  0mm
06:28 30.4 °F /  -0.9 °C 26.4 °F /  -3.1 °C 30.16in /  1021.2hPa Calm   1.0mph /  1.6km/h 85% 0.00in /  0mm
06:33 30.4 °F /  -0.9 °C 26.4 °F /  -3.1 °C 30.16in /  1021.2hPa Calm   1.0mph /  1.6km/h 85% 0.00in /  0mm
06:38 30.4 °F /  -0.9 °C 26.4 °F /  -3.1 °C 30.16in /  1021.2hPa Calm     85% 0.00in /  0mm
06:43 30.4 °F /  -0.9 °C 26.4 °F /  -3.1 °C 30.16in /  1021.2hPa ENE 2.0mph /  3.2km/h 2.0mph /  3.2km/h 85% 0.00in /  0mm
06:48 30.5 °F /  -0.8 °C 26.5 °F /  -3.1 °C 30.16in /  1021.2hPa ENE 1.0mph /  1.6km/h 2.0mph /  3.2km/h 85% 0.00in /  0mm
06:53 30.6 °F /  -0.8 °C 26.4 °F /  -3.1 °C 30.16in /  1021.2hPa NNE 1.0mph /  1.6km/h 2.0mph /  3.2km/h 84% 0.00in /  0mm
06:58 30.6 °F /  -0.8 °C 26.4 °F /  -3.1 °C 30.16in /  1021.2hPa Calm   2.0mph /  3.2km/h 84% 0.00in /  0mm
07:03 30.6 °F /  -0.8 °C 26.4 °F /  -3.1 °C 30.17in /  1021.6hPa Calm     84% 0.00in /  0mm
07:08 30.6 °F /  -0.8 °C 26.6 °F /  -3 °C 30.17in /  1021.6hPa Calm     85% 0.00in /  0mm
07:13 30.6 °F /  -0.8 °C 26.6 °F /  -3 °C 30.16in /  1021.2hPa NE 2.0mph /  3.2km/h 2.0mph /  3.2km/h 85% 0.00in /  0mm
07:19 30.5 °F /  -0.8 °C 26.5 °F /  -3.1 °C 30.17in /  1021.6hPa Calm     85% 0.00in /  0mm
07:24 30.5 °F /  -0.8 °C 26.5 °F /  -3.1 °C 30.16in /  1021.2hPa North 1.0mph /  1.6km/h 1.0mph /  1.6km/h 85% 0.00in /  0mm
07:29 30.6 °F /  -0.8 °C 26.6 °F /  -3 °C 30.16in /  1021.2hPa Calm   2.0mph /  3.2km/h 85% 0.00in /  0mm
07:34 30.5 °F /  -0.8 °C 26.5 °F /  -3.1 °C 30.16in /  1021.2hPa Calm     85% 0.00in /  0mm
07:39 30.6 °F /  -0.8 °C 26.4 °F /  -3.1 °C 30.16in /  1021.2hPa Calm   2.0mph /  3.2km/h 84% 0.00in /  0mm
07:44 30.7 °F /  -0.7 °C 26.5 °F /  -3.1 °C 30.16in /  1021.2hPa Calm   1.0mph /  1.6km/h 84% 0.00in /  0mm
07:49 30.8 °F /  -0.7 °C 26.8 °F /  -2.9 °C 30.17in /  1021.6hPa Calm     85% 0.00in /  0mm
07:54 30.8 °F /  -0.7 °C 27.1 °F /  -2.7 °C 30.17in /  1021.6hPa Calm     86% 0.00in /  0mm
07:59 30.8 °F /  -0.7 °C 27.1 °F /  -2.7 °C 30.17in /  1021.6hPa Calm     86% 0.00in /  0mm
08:04 30.8 °F /  -0.7 °C 26.8 °F /  -2.9 °C 30.17in /  1021.6hPa Calm     85% 0.00in /  0mm
08:09 30.9 °F /  -0.6 °C 26.9 °F /  -2.8 °C 30.17in /  1021.6hPa Calm   1.0mph /  1.6km/h 85% 0.00in /  0mm
08:14 31.0 °F /  -0.6 °C 27.0 °F /  -2.8 °C 30.17in /  1021.6hPa Calm   1.0mph /  1.6km/h 85% 0.00in /  0mm
08:19 31.0 °F /  -0.6 °C 27.0 °F /  -2.8 °C 30.16in /  1021.2hPa Calm   1.0mph /  1.6km/h 85% 0.00in /  0mm
08:24 31.1 °F /  -0.5 °C 27.1 °F /  -2.7 °C 30.17in /  1021.6hPa Calm     85% 0.00in /  0mm
08:29 31.2 °F /  -0.4 °C 27.2 °F /  -2.7 °C 30.17in /  1021.6hPa Calm     85% 0.00in /  0mm
08:34 31.3 °F /  -0.4 °C 27.3 °F /  -2.6 °C 30.17in /  1021.6hPa Calm     85% 0.00in /  0mm
08:39 31.4 °F /  -0.3 °C 27.1 °F /  -2.7 °C 30.17in /  1021.6hPa Calm     84% 0.00in /  0mm
08:44 31.5 °F /  -0.3 °C 27.2 °F /  -2.7 °C 30.17in /  1021.6hPa Calm   1.0mph /  1.6km/h 84% 0.00in /  0mm
08:49 31.6 °F /  -0.2 °C 27.3 °F /  -2.6 °C 30.17in /  1021.6hPa Calm     84% 0.00in /  0mm
08:54 31.8 °F /  -0.1 °C 27.5 °F /  -2.5 °C 30.17in /  1021.6hPa Calm     84% 0.00in /  0mm
08:59 31.9 °F /  -0.1 °C 27.3 °F /  -2.6 °C 30.17in /  1021.6hPa Calm     83% 0.00in /  0mm
09:04 32.0 °F /  0 °C 27.7 °F /  -2.4 °C 30.17in /  1021.6hPa Calm     84% 0.00in /  0mm
09:09 32.1 °F /  0.1 °C 27.2 °F /  -2.7 °C 30.17in /  1021.6hPa Calm     82% 0.00in /  0mm
09:14 32.3 °F /  0.2 °C 27.1 °F /  -2.7 °C 30.17in /  1021.6hPa Calm   1.0mph /  1.6km/h 81% 0.00in /  0mm
09:19 32.3 °F /  0.2 °C 27.1 °F /  -2.7 °C 30.17in /  1021.6hPa Calm   1.0mph /  1.6km/h 81% 0.00in /  0mm
09:24 32.5 °F /  0.3 °C 27.6 °F /  -2.4 °C 30.17in /  1021.6hPa Calm   1.0mph /  1.6km/h 82% 0.00in /  0mm
09:29 32.6 °F /  0.3 °C 27.4 °F /  -2.6 °C 30.17in /  1021.6hPa East 2.0mph /  3.2km/h 2.0mph /  3.2km/h 81% 0.00in /  0mm
09:34 32.7 °F /  0.4 °C 27.5 °F /  -2.5 °C 30.17in /  1021.6hPa SE 1.0mph /  1.6km/h 2.0mph /  3.2km/h 81% 0.00in /  0mm
09:39 32.9 °F /  0.5 °C 27.7 °F /  -2.4 °C 30.17in /  1021.6hPa Calm   2.0mph /  3.2km/h 81% 0.00in /  0mm
09:44 33.1 °F /  0.6 °C 28.2 °F /  -2.1 °C 30.17in /  1021.6hPa East 1.0mph /  1.6km/h 2.0mph /  3.2km/h 82% 0.00in /  0mm
09:49 33.3 °F /  0.7 °C 28.1 °F /  -2.2 °C 30.17in /  1021.6hPa Calm   1.0mph /  1.6km/h 81% 0.00in /  0mm
09:54 33.7 °F /  0.9 °C 28.8 °F /  -1.8 °C 30.17in /  1021.6hPa Calm     82% 0.00in /  0mm
09:59 34.1 °F /  1.2 °C 28.9 °F /  -1.7 °C 30.17in /  1021.6hPa East 1.0mph /  1.6km/h 1.0mph /  1.6km/h 81% 0.00in /  0mm
10:04 34.4 °F /  1.3 °C 29.2 °F /  -1.6 °C 30.17in /  1021.6hPa ESE 1.0mph /  1.6km/h 1.0mph /  1.6km/h 81% 0.00in /  0mm
10:09 34.8 °F /  1.6 °C 29.6 °F /  -1.3 °C 30.16in /  1021.2hPa Calm     81% 0.00in /  0mm
10:14 35.0 °F /  1.7 °C 29.5 °F /  -1.4 °C 30.16in /  1021.2hPa SSE 1.0mph /  1.6km/h 1.0mph /  1.6km/h 80% 0.00in /  0mm
10:19 35.0 °F /  1.7 °C 29.5 °F /  -1.4 °C 30.17in /  1021.6hPa Calm   1.0mph /  1.6km/h 80% 0.00in /  0mm
10:24 35.0 °F /  1.7 °C 29.5 °F /  -1.4 °C 30.17in /  1021.6hPa SSE 1.0mph /  1.6km/h 1.0mph /  1.6km/h 80% 0.00in /  0mm
10:29 35.2 °F /  1.8 °C 29.7 °F /  -1.3 °C 30.17in /  1021.6hPa Calm   1.0mph /  1.6km/h 80% 0.00in /  0mm
10:34 35.5 °F /  1.9 °C 29.6 °F /  -1.3 °C 30.16in /  1021.2hPa Calm   2.0mph /  3.2km/h 79% 0.00in /  0mm
10:39 35.7 °F /  2.1 °C 29.8 °F /  -1.2 °C 30.15in /  1020.9hPa ESE 3.0mph /  4.8km/h 3.0mph /  4.8km/h 79% 0.00in /  0mm
10:44 35.6 °F /  2 °C 30.0 °F /  -1.1 °C 30.15in /  1020.9hPa ESE 4.0mph /  6.4km/h 4.0mph /  6.4km/h 80% 0.00in /  0mm
10:49 35.7 °F /  2.1 °C 29.8 °F /  -1.2 °C 30.15in /  1020.9hPa SE 1.0mph /  1.6km/h 4.0mph /  6.4km/h 79% 0.00in /  0mm
10:50 35.7 °F /  2.1 °C 29.8 °F /  -1.2 °C 30.15in /  1020.9hPa Calm   4.0mph /  6.4km/h 79% 0.00in /  0mm
10:55 36.1 °F /  2.3 °C 30.5 °F /  -0.8 °C 30.15in /  1020.9hPa SE 2.0mph /  3.2km/h 2.0mph /  3.2km/h 80% 0.00in /  0mm
11:00 36.5 °F /  2.5 °C 30.9 °F /  -0.6 °C 30.15in /  1020.9hPa SE 2.0mph /  3.2km/h 3.0mph /  4.8km/h 80% 0.00in /  0mm
11:05 36.8 °F /  2.7 °C 30.6 °F /  -0.8 °C 30.15in /  1020.9hPa SSW 2.0mph /  3.2km/h 3.0mph /  4.8km/h 78% 0.00in /  0mm
11:10 37.1 °F /  2.8 °C 30.9 °F /  -0.6 °C 30.15in /  1020.9hPa South 1.0mph /  1.6km/h 2.0mph /  3.2km/h 78% 0.00in /  0mm
11:15 37.2 °F /  2.9 °C 31.0 °F /  -0.6 °C 30.15in /  1020.9hPa SSW 2.0mph /  3.2km/h 3.0mph /  4.8km/h 78% 0.00in /  0mm
11:20 37.4 °F /  3 °C 30.9 °F /  -0.6 °C 30.15in /  1020.9hPa SSW 2.0mph /  3.2km/h 3.0mph /  4.8km/h 77% 0.00in /  0mm
11:25 37.7 °F /  3.2 °C 31.1 °F /  -0.5 °C 30.15in /  1020.9hPa SW 1.0mph /  1.6km/h 3.0mph /  4.8km/h 77% 0.00in /  0mm
11:30 37.8 °F /  3.2 °C 31.2 °F /  -0.4 °C 30.14in /  1020.5hPa West 4.0mph /  6.4km/h 4.0mph /  6.4km/h 77% 0.00in /  0mm
11:35 38.1 °F /  3.4 °C 30.9 °F /  -0.6 °C 30.14in /  1020.5hPa WSW 1.0mph /  1.6km/h 4.0mph /  6.4km/h 75% 0.00in /  0mm
11:40 38.5 °F /  3.6 °C 31.3 °F /  -0.4 °C 30.14in /  1020.5hPa West 1.0mph /  1.6km/h 3.0mph /  4.8km/h 75% 0.00in /  0mm
11:45 38.5 °F /  3.6 °C 31.6 °F /  -0.2 °C 30.14in /  1020.5hPa SSW 2.0mph /  3.2km/h 3.0mph /  4.8km/h 76% 0.00in /  0mm
11:50 38.5 °F /  3.6 °C 31.0 °F /  -0.6 °C 30.14in /  1020.5hPa WSW 3.0mph /  4.8km/h 4.0mph /  6.4km/h 74% 0.00in /  0mm
11:55 38.6 °F /  3.7 °C 30.7 °F /  -0.7 °C 30.14in /  1020.5hPa SSW 2.0mph /  3.2km/h 6.0mph /  9.7km/h 73% 0.00in /  0mm
12:00 39.0 °F /  3.9 °C 31.1 °F /  -0.5 °C 30.13in /  1020.2hPa Calm   5.0mph /  8km/h 73% 0.00in /  0mm
12:05 38.9 °F /  3.8 °C 30.3 °F /  -0.9 °C 30.13in /  1020.2hPa WNW 6.0mph /  9.7km/h 6.0mph /  9.7km/h 71% 0.00in /  0mm
12:10 38.7 °F /  3.7 °C 30.5 °F /  -0.8 °C 30.13in /  1020.2hPa SW 1.0mph /  1.6km/h 4.0mph /  6.4km/h 72% 0.00in /  0mm
12:15 38.8 °F /  3.8 °C 30.6 °F /  -0.8 °C 30.13in /  1020.2hPa West 3.0mph /  4.8km/h 5.0mph /  8km/h 72% 0.00in /  0mm
12:20 38.9 °F /  3.8 °C 30.7 °F /  -0.7 °C 30.13in /  1020.2hPa WSW 4.0mph /  6.4km/h 7.0mph /  11.3km/h 72% 0.00in /  0mm
12:25 38.9 °F /  3.8 °C 30.3 °F /  -0.9 °C 30.13in /  1020.2hPa WSW 2.0mph /  3.2km/h 4.0mph /  6.4km/h 71% 0.00in /  0mm
12:30 38.8 °F /  3.8 °C 29.9 °F /  -1.2 °C 30.13in /  1020.2hPa West 4.0mph /  6.4km/h 6.0mph /  9.7km/h 70% 0.00in /  0mm
12:35 38.7 °F /  3.7 °C 30.5 °F /  -0.8 °C 30.13in /  1020.2hPa SW 2.0mph /  3.2km/h 3.0mph /  4.8km/h 72% 0.00in /  0mm
12:40 38.8 °F /  3.8 °C 30.6 °F /  -0.8 °C 30.13in /  1020.2hPa West 2.0mph /  3.2km/h 4.0mph /  6.4km/h 72% 0.00in /  0mm
12:46 38.9 °F /  3.8 °C 30.3 °F /  -0.9 °C 30.13in /  1020.2hPa West 3.0mph /  4.8km/h 4.0mph /  6.4km/h 71% 0.00in /  0mm
12:51 38.8 °F /  3.8 °C 29.9 °F /  -1.2 °C 30.13in /  1020.2hPa WSW 4.0mph /  6.4km/h 6.0mph /  9.7km/h 70% 0.00in /  0mm
12:56 38.7 °F /  3.7 °C 29.4 °F /  -1.4 °C 30.13in /  1020.2hPa WSW 5.0mph /  8km/h 5.0mph /  8km/h 69% 0.00in /  0mm
13:01 38.5 °F /  3.6 °C 29.2 °F /  -1.6 °C 30.12in /  1019.9hPa WSW 3.0mph /  4.8km/h 7.0mph /  11.3km/h 69% 0.00in /  0mm
13:06 38.6 °F /  3.7 °C 30.0 °F /  -1.1 °C 30.12in /  1019.9hPa West 1.0mph /  1.6km/h 3.0mph /  4.8km/h 71% 0.00in /  0mm
13:11 38.7 °F /  3.7 °C 30.1 °F /  -1.1 °C 30.12in /  1019.9hPa West 4.0mph /  6.4km/h 5.0mph /  8km/h 71% 0.00in /  0mm
13:16 38.7 °F /  3.7 °C 29.8 °F /  -1.2 °C 30.12in /  1019.9hPa West 3.0mph /  4.8km/h 5.0mph /  8km/h 70% 0.00in /  0mm
13:21 38.6 °F /  3.7 °C 30.0 °F /  -1.1 °C 30.12in /  1019.9hPa West 2.0mph /  3.2km/h 4.0mph /  6.4km/h 71% 0.00in /  0mm
13:26 38.5 °F /  3.6 °C 29.9 °F /  -1.2 °C 30.12in /  1019.9hPa West 3.0mph /  4.8km/h 5.0mph /  8km/h 71% 0.00in /  0mm
13:31 38.7 °F /  3.7 °C 29.8 °F /  -1.2 °C 30.12in /  1019.9hPa WSW 4.0mph /  6.4km/h 6.0mph /  9.7km/h 70% 0.00in /  0mm
13:36 38.7 °F /  3.7 °C 30.1 °F /  -1.1 °C 30.12in /  1019.9hPa SW 4.0mph /  6.4km/h 7.0mph /  11.3km/h 71% 0.00in /  0mm
13:41 38.8 °F /  3.8 °C 30.2 °F /  -1 °C 30.12in /  1019.9hPa WSW 5.0mph /  8km/h 5.0mph /  8km/h 71% 0.00in /  0mm
13:46 38.9 °F /  3.8 °C 30.7 °F /  -0.7 °C 30.11in /  1019.5hPa SW 1.0mph /  1.6km/h 3.0mph /  4.8km/h 72% 0.00in /  0mm
13:51 39.2 °F /  4 °C 30.6 °F /  -0.8 °C 30.11in /  1019.5hPa WSW 2.0mph /  3.2km/h 3.0mph /  4.8km/h 71% 0.00in /  0mm
13:56 39.5 °F /  4.2 °C 30.9 °F /  -0.6 °C 30.11in /  1019.5hPa WSW 3.0mph /  4.8km/h 4.0mph /  6.4km/h 71% 0.00in /  0mm
14:01 39.4 °F /  4.1 °C 31.1 °F /  -0.5 °C 30.11in /  1019.5hPa WSW 3.0mph /  4.8km/h 5.0mph /  8km/h 72% 0.00in /  0mm
14:06 39.4 °F /  4.1 °C 30.8 °F /  -0.7 °C 30.11in /  1019.5hPa SW 1.0mph /  1.6km/h 5.0mph /  8km/h 71% 0.00in /  0mm
14:11 39.5 °F /  4.2 °C 30.9 °F /  -0.6 °C 30.10in /  1019.2hPa SW 5.0mph /  8km/h 6.0mph /  9.7km/h 71% 0.00in /  0mm
14:16 39.3 °F /  4.1 °C 31.0 °F /  -0.6 °C 30.10in /  1019.2hPa West 1.0mph /  1.6km/h 5.0mph /  8km/h 72% 0.00in /  0mm
14:21 39.7 °F /  4.3 °C 32.1 °F /  0.1 °C 30.09in /  1018.8hPa WSW 2.0mph /  3.2km/h 6.0mph /  9.7km/h 74% 0.00in /  0mm
14:26 39.8 °F /  4.3 °C 31.9 °F /  -0.1 °C 30.08in /  1018.5hPa ESE 1.0mph /  1.6km/h 3.0mph /  4.8km/h 73% 0.00in /  0mm
14:31 40.1 °F /  4.5 °C 31.5 °F /  -0.3 °C 30.08in /  1018.5hPa Calm   1.0mph /  1.6km/h 71% 0.00in /  0mm
14:36 40.2 °F /  4.6 °C 31.6 °F /  -0.2 °C 30.08in /  1018.5hPa SSW 1.0mph /  1.6km/h 3.0mph /  4.8km/h 71% 0.00in /  0mm
14:41 40.3 °F /  4.6 °C 31.7 °F /  -0.2 °C 30.08in /  1018.5hPa South 2.0mph /  3.2km/h 2.0mph /  3.2km/h 71% 0.00in /  0mm
14:46 40.3 °F /  4.6 °C 32.0 °F /  0 °C 30.08in /  1018.5hPa South 3.0mph /  4.8km/h 3.0mph /  4.8km/h 72% 0.00in /  0mm
14:51 40.5 °F /  4.7 °C 32.2 °F /  0.1 °C 30.08in /  1018.5hPa Calm   1.0mph /  1.6km/h 72% 0.00in /  0mm
14:56 40.6 °F /  4.8 °C 32.0 °F /  0 °C 30.07in /  1018.2hPa Calm   1.0mph /  1.6km/h 71% 0.00in /  0mm
15:01 40.5 °F /  4.7 °C 32.5 °F /  0.3 °C 30.08in /  1018.5hPa SSE 2.0mph /  3.2km/h 2.0mph /  3.2km/h 73% 0.00in /  0mm
15:06 40.5 °F /  4.7 °C 32.5 °F /  0.3 °C 30.07in /  1018.2hPa WSW 2.0mph /  3.2km/h 3.0mph /  4.8km/h 73% 0.00in /  0mm
15:11 40.1 °F /  4.5 °C 32.2 °F /  0.1 °C 30.07in /  1018.2hPa North 2.0mph /  3.2km/h 2.0mph /  3.2km/h 73% 0.00in /  0mm
15:16 40.0 °F /  4.4 °C 32.7 °F /  0.4 °C 30.08in /  1018.5hPa SW 2.0mph /  3.2km/h 3.0mph /  4.8km/h 75% 0.00in /  0mm
15:21 39.9 °F /  4.4 °C 33.0 °F /  0.6 °C 30.07in /  1018.2hPa WNW 2.0mph /  3.2km/h 5.0mph /  8km/h 76% 0.00in /  0mm
15:26 39.6 °F /  4.2 °C 32.7 °F /  0.4 °C 30.07in /  1018.2hPa WNW 1.0mph /  1.6km/h 4.0mph /  6.4km/h 76% 0.00in /  0mm
15:31 39.1 °F /  3.9 °C 33.2 °F /  0.7 °C 30.06in /  1017.8hPa West 1.0mph /  1.6km/h 3.0mph /  4.8km/h 79% 0.00in /  0mm
15:36 38.9 °F /  3.8 °C 33.3 °F /  0.7 °C 30.07in /  1018.2hPa WNW 2.0mph /  3.2km/h 3.0mph /  4.8km/h 80% 0.00in /  0mm
15:41 38.9 °F /  3.8 °C 33.9 °F /  1.1 °C 30.07in /  1018.2hPa Calm   3.0mph /  4.8km/h 82% 0.00in /  0mm
15:46 38.8 °F /  3.8 °C 34.4 °F /  1.3 °C 30.07in /  1018.2hPa West 2.0mph /  3.2km/h 4.0mph /  6.4km/h 84% 0.00in /  0mm
15:47 38.8 °F /  3.8 °C 34.4 °F /  1.3 °C 30.07in /  1018.2hPa WSW 2.0mph /  3.2km/h 3.0mph /  4.8km/h 84% 0.00in /  0mm
15:52 38.5 °F /  3.6 °C 34.1 °F /  1.2 °C 30.07in /  1018.2hPa WNW 1.0mph /  1.6km/h 5.0mph /  8km/h 84% 0.00in /  0mm
15:57 38.5 °F /  3.6 °C 34.4 °F /  1.3 °C 30.07in /  1018.2hPa West 1.0mph /  1.6km/h 3.0mph /  4.8km/h 85% 0.00in /  0mm
16:02 38.3 °F /  3.5 °C 34.5 °F /  1.4 °C 30.08in /  1018.5hPa WNW 3.0mph /  4.8km/h 4.0mph /  6.4km/h 86% 0.00in /  0mm
16:07 38.2 °F /  3.4 °C 34.4 °F /  1.3 °C 30.08in /  1018.5hPa WSW 3.0mph /  4.8km/h 3.0mph /  4.8km/h 86% 0.00in /  0mm
16:12 38.0 °F /  3.3 °C 34.2 °F /  1.2 °C 30.07in /  1018.2hPa WSW 2.0mph /  3.2km/h 4.0mph /  6.4km/h 86% 0.00in /  0mm
16:17 37.8 °F /  3.2 °C 34.3 °F /  1.3 °C 30.08in /  1018.5hPa West 1.0mph /  1.6km/h 1.0mph /  1.6km/h 87% 0.00in /  0mm
16:22 37.7 °F /  3.2 °C 34.2 °F /  1.2 °C 30.08in /  1018.5hPa SSW 2.0mph /  3.2km/h 5.0mph /  8km/h 87% 0.00in /  0mm
16:27 37.4 °F /  3 °C 33.9 °F /  1.1 °C 30.08in /  1018.5hPa SW 1.0mph /  1.6km/h 4.0mph /  6.4km/h 87% 0.00in /  0mm
16:32 37.3 °F /  2.9 °C 34.4 °F /  1.3 °C 30.07in /  1018.2hPa Calm   1.0mph /  1.6km/h 89% 0.00in /  0mm
16:38 37.2 °F /  2.9 °C 34.3 °F /  1.3 °C 30.07in /  1018.2hPa Calm   1.0mph /  1.6km/h 89% 0.00in /  0mm
16:43 37.2 °F /  2.9 °C 34.3 °F /  1.3 °C 30.07in /  1018.2hPa SE 1.0mph /  1.6km/h 3.0mph /  4.8km/h 89% 0.04in /  1.02mm
16:48 37.2 °F /  2.9 °C 34.3 °F /  1.3 °C 30.07in /  1018.2hPa SE 2.0mph /  3.2km/h 2.0mph /  3.2km/h 89% 0.04in /  1.02mm
16:52 37.2 °F /  2.9 °C 34.5 °F /  1.4 °C 30.07in /  1018.2hPa SSW 3.0mph /  4.8km/h 3.0mph /  4.8km/h 90% 0.04in /  1.02mm
16:58 37.1 °F /  2.8 °C 34.4 °F /  1.3 °C 30.07in /  1018.2hPa SW 1.0mph /  1.6km/h 4.0mph /  6.4km/h 90% 0.00in /  0mm
17:03 37.1 °F /  2.8 °C 34.7 °F /  1.5 °C 30.07in /  1018.2hPa South 5.0mph /  8km/h 7.0mph /  11.3km/h 91% 0.00in /  0mm
17:08 36.7 °F /  2.6 °C 34.3 °F /  1.3 °C 30.07in /  1018.2hPa SSE 5.0mph /  8km/h 7.0mph /  11.3km/h 91% 0.00in /  0mm
17:13 36.4 °F /  2.4 °C 34.3 °F /  1.3 °C 30.07in /  1018.2hPa SE 3.0mph /  4.8km/h 5.0mph /  8km/h 92% 0.00in /  0mm
17:18 36.2 °F /  2.3 °C 34.4 °F /  1.3 °C 30.07in /  1018.2hPa SSE 2.0mph /  3.2km/h 5.0mph /  8km/h 93% 0.00in /  0mm
17:23 36.1 °F /  2.3 °C 34.3 °F /  1.3 °C 30.07in /  1018.2hPa SSE 4.0mph /  6.4km/h 4.0mph /  6.4km/h 93% 0.00in /  0mm
17:28 35.9 °F /  2.2 °C 34.1 °F /  1.2 °C 30.07in /  1018.2hPa SSW 2.0mph /  3.2km/h 6.0mph /  9.7km/h 93% 0.00in /  0mm
17:33 35.8 °F /  2.1 °C 34.0 °F /  1.1 °C 30.07in /  1018.2hPa SSE 3.0mph /  4.8km/h 4.0mph /  6.4km/h 93% 0.00in /  0mm
17:38 35.7 °F /  2.1 °C 34.2 °F /  1.2 °C 30.08in /  1018.5hPa SSW 2.0mph /  3.2km/h 4.0mph /  6.4km/h 94% 0.00in /  0mm
17:43 35.7 °F /  2.1 °C 34.2 °F /  1.2 °C 30.08in /  1018.5hPa South 2.0mph /  3.2km/h 3.0mph /  4.8km/h 94% 0.00in /  0mm
17:48 35.7 °F /  2.1 °C 34.2 °F /  1.2 °C 30.07in /  1018.2hPa SSE 1.0mph /  1.6km/h 4.0mph /  6.4km/h 94% 0.00in /  0mm
17:53 35.7 °F /  2.1 °C 34.2 °F /  1.2 °C 30.06in /  1017.8hPa SE 4.0mph /  6.4km/h 4.0mph /  6.4km/h 94% 0.00in /  0mm
17:58 35.6 °F /  2 °C 34.0 °F /  1.1 °C 30.05in /  1017.5hPa SSE 3.0mph /  4.8km/h 4.0mph /  6.4km/h 94% 0.00in /  0mm
18:03 35.7 °F /  2.1 °C 34.4 °F /  1.3 °C 30.05in /  1017.5hPa SE 4.0mph /  6.4km/h 6.0mph /  9.7km/h 95% 0.00in /  0mm
18:08 35.6 °F /  2 °C 34.3 °F /  1.3 °C 30.05in /  1017.5hPa South 2.0mph /  3.2km/h 3.0mph /  4.8km/h 95% 0.00in /  0mm
18:13 35.6 °F /  2 °C 34.3 °F /  1.3 °C 30.06in /  1017.8hPa SSW 2.0mph /  3.2km/h 4.0mph /  6.4km/h 95% 0.00in /  0mm
18:18 35.6 °F /  2 °C 34.3 °F /  1.3 °C 30.06in /  1017.8hPa South 2.0mph /  3.2km/h 4.0mph /  6.4km/h 95% 0.00in /  0mm
18:23 35.7 °F /  2.1 °C 34.4 °F /  1.3 °C 30.06in /  1017.8hPa SSW 1.0mph /  1.6km/h 3.0mph /  4.8km/h 95% 0.00in /  0mm
18:28 35.7 °F /  2.1 °C 34.4 °F /  1.3 °C 30.06in /  1017.8hPa SW 3.0mph /  4.8km/h 6.0mph /  9.7km/h 95% 0.00in /  0mm
18:33 35.7 °F /  2.1 °C 34.4 °F /  1.3 °C 30.06in /  1017.8hPa SSW 2.0mph /  3.2km/h 4.0mph /  6.4km/h 95% 0.00in /  0mm
18:38 35.7 °F /  2.1 °C 34.4 °F /  1.3 °C 30.06in /  1017.8hPa SW 2.0mph /  3.2km/h 4.0mph /  6.4km/h 95% 0.00in /  0mm
18:43 35.6 °F /  2 °C 34.3 °F /  1.3 °C 30.06in /  1017.8hPa West 2.0mph /  3.2km/h 5.0mph /  8km/h 95% 0.00in /  0mm
18:48 35.6 °F /  2 °C 34.3 °F /  1.3 °C 30.06in /  1017.8hPa SW 2.0mph /  3.2km/h 4.0mph /  6.4km/h 95% 0.00in /  0mm
18:53 35.6 °F /  2 °C 34.3 °F /  1.3 °C 30.06in /  1017.8hPa SW 3.0mph /  4.8km/h 4.0mph /  6.4km/h 95% 0.00in /  0mm
18:58 35.6 °F /  2 °C 34.3 °F /  1.3 °C 30.05in /  1017.5hPa SW 1.0mph /  1.6km/h 3.0mph /  4.8km/h 95% 0.00in /  0mm
19:03 35.5 °F /  1.9 °C 34.2 °F /  1.2 °C 30.05in /  1017.5hPa South 2.0mph /  3.2km/h 4.0mph /  6.4km/h 95% 0.00in /  0mm
19:08 35.5 °F /  1.9 °C 34.2 °F /  1.2 °C 30.05in /  1017.5hPa SSE 3.0mph /  4.8km/h 3.0mph /  4.8km/h 95% 0.00in /  0mm
19:13 35.5 °F /  1.9 °C 34.2 °F /  1.2 °C 30.05in /  1017.5hPa WSW 1.0mph /  1.6km/h 2.0mph /  3.2km/h 95% 0.00in /  0mm
19:19 35.5 °F /  1.9 °C 34.2 °F /  1.2 °C 30.05in /  1017.5hPa SW 2.0mph /  3.2km/h 3.0mph /  4.8km/h 95% 0.00in /  0mm
19:24 35.5 °F /  1.9 °C 34.2 °F /  1.2 °C 30.06in /  1017.8hPa WSW 1.0mph /  1.6km/h 2.0mph /  3.2km/h 95% 0.00in /  0mm
19:29 35.6 °F /  2 °C 34.3 °F /  1.3 °C 30.06in /  1017.8hPa SW 1.0mph /  1.6km/h 2.0mph /  3.2km/h 95% 0.00in /  0mm
19:34 35.6 °F /  2 °C 34.3 °F /  1.3 °C 30.06in /  1017.8hPa SSW 2.0mph /  3.2km/h 2.0mph /  3.2km/h 95% 0.00in /  0mm
19:39 35.6 °F /  2 °C 34.3 °F /  1.3 °C 30.06in /  1017.8hPa South 2.0mph /  3.2km/h 3.0mph /  4.8km/h 95% 0.00in /  0mm
19:44 35.6 °F /  2 °C 34.3 °F /  1.3 °C 30.06in /  1017.8hPa SSW 1.0mph /  1.6km/h 2.0mph /  3.2km/h 95% 0.00in /  0mm
19:49 35.6 °F /  2 °C 34.6 °F /  1.4 °C 30.06in /  1017.8hPa Calm   2.0mph /  3.2km/h 96% 0.00in /  0mm
19:54 35.6 °F /  2 °C 34.6 °F /  1.4 °C 30.06in /  1017.8hPa SW 3.0mph /  4.8km/h 3.0mph /  4.8km/h 96% 0.00in /  0mm
19:59 35.7 °F /  2.1 °C 34.7 °F /  1.5 °C 30.06in /  1017.8hPa SW 2.0mph /  3.2km/h 3.0mph /  4.8km/h 96% 0.00in /  0mm
20:04 35.7 °F /  2.1 °C 34.7 °F /  1.5 °C 30.06in /  1017.8hPa SW 3.0mph /  4.8km/h 3.0mph /  4.8km/h 96% 0.00in /  0mm
20:09 35.7 °F /  2.1 °C 34.7 °F /  1.5 °C 30.06in /  1017.8hPa SW 1.0mph /  1.6km/h 3.0mph /  4.8km/h 96% 0.00in /  0mm
20:15 35.7 °F /  2.1 °C 34.7 °F /  1.5 °C 30.06in /  1017.8hPa SSW 1.0mph /  1.6km/h 2.0mph /  3.2km/h 96% 0.00in /  0mm
20:20 35.7 °F /  2.1 °C 34.7 °F /  1.5 °C 30.06in /  1017.8hPa West 1.0mph /  1.6km/h 2.0mph /  3.2km/h 96% 0.00in /  0mm
20:25 35.7 °F /  2.1 °C 34.7 °F /  1.5 °C 30.06in /  1017.8hPa SW 2.0mph /  3.2km/h 2.0mph /  3.2km/h 96% 0.00in /  0mm
20:30 35.8 °F /  2.1 °C 34.8 °F /  1.6 °C 30.07in /  1018.2hPa SW 2.0mph /  3.2km/h 3.0mph /  4.8km/h 96% 0.00in /  0mm
20:35 35.8 °F /  2.1 °C 34.8 °F /  1.6 °C 30.07in /  1018.2hPa SW 2.0mph /  3.2km/h 3.0mph /  4.8km/h 96% 0.00in /  0mm
20:40 35.8 °F /  2.1 °C 34.8 °F /  1.6 °C 30.07in /  1018.2hPa SW 1.0mph /  1.6km/h 3.0mph /  4.8km/h 96% 0.00in /  0mm
20:45 35.9 °F /  2.2 °C 34.9 °F /  1.6 °C 30.07in /  1018.2hPa SW 2.0mph /  3.2km/h 3.0mph /  4.8km/h 96% 0.00in /  0mm
20:51 35.9 °F /  2.2 °C 34.9 °F /  1.6 °C 30.07in /  1018.2hPa SW 2.0mph /  3.2km/h 3.0mph /  4.8km/h 96% 0.00in /  0mm
20:56 35.9 °F /  2.2 °C 34.9 °F /  1.6 °C 30.07in /  1018.2hPa SW 4.0mph /  6.4km/h 4.0mph /  6.4km/h 96% 0.00in /  0mm
21:01 36.0 °F /  2.2 °C 35.0 °F /  1.7 °C 30.07in /  1018.2hPa SW 4.0mph /  6.4km/h 4.0mph /  6.4km/h 96% 0.00in /  0mm
21:06 36.0 °F /  2.2 °C 35.0 °F /  1.7 °C 30.07in /  1018.2hPa SSW 2.0mph /  3.2km/h 2.0mph /  3.2km/h 96% 0.00in /  0mm
21:11 36.0 °F /  2.2 °C 35.0 °F /  1.7 °C 30.07in /  1018.2hPa SW 2.0mph /  3.2km/h 3.0mph /  4.8km/h 96% 0.00in /  0mm
21:16 36.0 °F /  2.2 °C 35.0 °F /  1.7 °C 30.07in /  1018.2hPa SW 2.0mph /  3.2km/h 2.0mph /  3.2km/h 96% 0.00in /  0mm
21:21 36.0 °F /  2.2 °C 35.0 °F /  1.7 °C 30.07in /  1018.2hPa SW 2.0mph /  3.2km/h 4.0mph /  6.4km/h 96% 0.00in /  0mm
21:26 36.1 °F /  2.3 °C 35.1 °F /  1.7 °C 30.07in /  1018.2hPa WSW 1.0mph /  1.6km/h 2.0mph /  3.2km/h 96% 0.00in /  0mm
21:31 36.1 °F /  2.3 °C 35.1 °F /  1.7 °C 30.07in /  1018.2hPa West 1.0mph /  1.6km/h 3.0mph /  4.8km/h 96% 0.00in /  0mm
21:36 36.1 °F /  2.3 °C 35.1 °F /  1.7 °C 30.08in /  1018.5hPa WSW 2.0mph /  3.2km/h 4.0mph /  6.4km/h 96% 0.00in /  0mm
21:41 36.2 °F /  2.3 °C 35.2 °F /  1.8 °C 30.08in /  1018.5hPa SW 2.0mph /  3.2km/h 4.0mph /  6.4km/h 96% 0.00in /  0mm
21:46 36.3 °F /  2.4 °C 35.3 °F /  1.8 °C 30.08in /  1018.5hPa WSW 4.0mph /  6.4km/h 5.0mph /  8km/h 96% 0.00in /  0mm
21:51 36.3 °F /  2.4 °C 35.3 °F /  1.8 °C 30.08in /  1018.5hPa WSW 2.0mph /  3.2km/h 6.0mph /  9.7km/h 96% 0.00in /  0mm
21:56 36.3 °F /  2.4 °C 35.3 °F /  1.8 °C 30.08in /  1018.5hPa SW 4.0mph /  6.4km/h 5.0mph /  8km/h 96% 0.00in /  0mm
22:01 36.4 °F /  2.4 °C 35.4 °F /  1.9 °C 30.08in /  1018.5hPa West 3.0mph /  4.8km/h 6.0mph /  9.7km/h 96% 0.00in /  0mm
22:06 36.4 °F /  2.4 °C 35.4 °F /  1.9 °C 30.08in /  1018.5hPa West 4.0mph /  6.4km/h 5.0mph /  8km/h 96% 0.00in /  0mm
22:11 36.4 °F /  2.4 °C 35.4 °F /  1.9 °C 30.08in /  1018.5hPa SW 4.0mph /  6.4km/h 4.0mph /  6.4km/h 96% 0.00in /  0mm
22:16 36.5 °F /  2.5 °C 35.5 °F /  1.9 °C 30.08in /  1018.5hPa WSW 4.0mph /  6.4km/h 6.0mph /  9.7km/h 96% 0.00in /  0mm
22:21 36.5 °F /  2.5 °C 35.5 °F /  1.9 °C 30.08in /  1018.5hPa West 4.0mph /  6.4km/h 6.0mph /  9.7km/h 96% 0.00in /  0mm
22:26 36.6 °F /  2.6 °C 35.6 °F /  2 °C 30.08in /  1018.5hPa West 4.0mph /  6.4km/h 5.0mph /  8km/h 96% 0.00in /  0mm
22:31 36.7 °F /  2.6 °C 35.7 °F /  2.1 °C 30.08in /  1018.5hPa West 2.0mph /  3.2km/h 5.0mph /  8km/h 96% 0.00in /  0mm
22:36 36.7 °F /  2.6 °C 35.7 °F /  2.1 °C 30.08in /  1018.5hPa West 3.0mph /  4.8km/h 7.0mph /  11.3km/h 96% 0.00in /  0mm
22:41 36.8 °F /  2.7 °C 35.8 °F /  2.1 °C 30.08in /  1018.5hPa West 3.0mph /  4.8km/h 6.0mph /  9.7km/h 96% 0.00in /  0mm
22:47 36.8 °F /  2.7 °C 35.8 °F /  2.1 °C 30.08in /  1018.5hPa WSW 4.0mph /  6.4km/h 5.0mph /  8km/h 96% 0.00in /  0mm
22:52 36.8 °F /  2.7 °C 35.8 °F /  2.1 °C 30.08in /  1018.5hPa WNW 3.0mph /  4.8km/h 7.0mph /  11.3km/h 96% 0.00in /  0mm
22:57 36.8 °F /  2.7 °C 35.8 °F /  2.1 °C 30.08in /  1018.5hPa WNW 5.0mph /  8km/h 6.0mph /  9.7km/h 96% 0.00in /  0mm
23:02 36.8 °F /  2.7 °C 35.8 °F /  2.1 °C 30.08in /  1018.5hPa West 3.0mph /  4.8km/h 7.0mph /  11.3km/h 96% 0.00in /  0mm
23:07 36.9 °F /  2.7 °C 35.9 °F /  2.2 °C 30.08in /  1018.5hPa WSW 4.0mph /  6.4km/h 9.0mph /  14.5km/h 96% 0.00in /  0mm
23:12 36.9 °F /  2.7 °C 35.9 °F /  2.2 °C 30.08in /  1018.5hPa WNW 5.0mph /  8km/h 7.0mph /  11.3km/h 96% 0.00in /  0mm
23:17 36.9 °F /  2.7 °C 35.9 °F /  2.2 °C 30.08in /  1018.5hPa WNW 4.0mph /  6.4km/h 9.0mph /  14.5km/h 96% 0.00in /  0mm
23:22 36.9 °F /  2.7 °C 35.9 °F /  2.2 °C 30.07in /  1018.2hPa WNW 7.0mph /  11.3km/h 7.0mph /  11.3km/h 96% 0.00in /  0mm
23:27 37.0 °F /  2.8 °C 36.0 °F /  2.2 °C 30.07in /  1018.2hPa WNW 8.0mph /  12.9km/h 8.0mph /  12.9km/h 96% 0.00in /  0mm
23:32 37.0 °F /  2.8 °C 36.0 °F /  2.2 °C 30.07in /  1018.2hPa West 3.0mph /  4.8km/h 7.0mph /  11.3km/h 96% 0.00in /  0mm
23:37 37.0 °F /  2.8 °C 36.0 °F /  2.2 °C 30.07in /  1018.2hPa West 5.0mph /  8km/h 8.0mph /  12.9km/h 96% 0.00in /  0mm
23:42 37.0 °F /  2.8 °C 36.0 °F /  2.2 °C 30.07in /  1018.2hPa WNW 3.0mph /  4.8km/h 9.0mph /  14.5km/h 96% 0.00in /  0mm
23:47 37.1 °F /  2.8 °C 36.1 °F /  2.3 °C 30.06in /  1017.8hPa WNW 5.0mph /  8km/h 9.0mph /  14.5km/h 96% 0.00in /  0mm
23:52 37.1 °F /  2.8 °C 36.1 °F /  2.3 °C 30.07in /  1018.2hPa West 3.0mph /  4.8km/h 5.0mph /  8km/h 96% 0.00in /  0mm
23:57 37.1 °F /  2.8 °C 36.1 °F /  2.3 °C 30.06in /  1017.8hPa WSW 2.0mph /  3.2km/h 6.0mph /  9.7km/h 96% 0.00in /  0mm
Compliments of Weather Underground